sensor_id;sensor_type;location;lat;lon;timestamp;pressure;altitude;pressure_sealevel;temperature;humidity
77482;BME280;66582;43.004;-75.010;2023-02-01T00:01:25;101184.28;;;-8.97;50.22
77482;BME280;66582;43.004;-75.010;2023-02-01T00:03:51;101174.62;;;-7.40;47.89
77482;BME280;66582;43.004;-75.010;2023-02-01T00:06:15;101184.26;;;-9.09;49.70
77482;BME280;66582;43.004;-75.010;2023-02-01T00:08:40;101177.66;;;-7.76;48.40
77482;BME280;66582;43.004;-75.010;2023-02-01T00:11:07;101174.84;;;-8.65;48.07
77482;BME280;66582;43.004;-75.010;2023-02-01T00:13:32;101180.66;;;-9.72;51.67
77482;BME280;66582;43.004;-75.010;2023-02-01T00:16:03;101172.97;;;-9.36;51.73
77482;BME280;66582;43.004;-75.010;2023-02-01T00:18:22;101185.10;;;-10.49;54.35
77482;BME280;66582;43.004;-75.010;2023-02-01T00:20:46;101189.75;;;-10.55;54.59
77482;BME280;66582;43.004;-75.010;2023-02-01T00:23:12;101204.03;;;-11.41;59.12
77482;BME280;66582;43.004;-75.010;2023-02-01T00:25:37;101204.22;;;-11.26;57.76
77482;BME280;66582;43.004;-75.010;2023-02-01T00:28:03;101203.36;;;-11.22;58.46
77482;BME280;66582;43.004;-75.010;2023-02-01T00:30:28;101185.00;;;-8.90;53.70
77482;BME280;66582;43.004;-75.010;2023-02-01T00:32:54;101202.13;;;-10.24;55.64
77482;BME280;66582;43.004;-75.010;2023-02-01T00:35:18;101197.26;;;-9.25;55.09
77482;BME280;66582;43.004;-75.010;2023-02-01T00:37:44;101197.09;;;-8.63;52.95
77482;BME280;66582;43.004;-75.010;2023-02-01T00:40:10;101202.27;;;-8.78;51.43
77482;BME280;66582;43.004;-75.010;2023-02-01T00:42:34;101216.17;;;-10.27;52.42
77482;BME280;66582;43.004;-75.010;2023-02-01T00:45:00;101227.77;;;-11.38;57.83
77482;BME280;66582;43.004;-75.010;2023-02-01T00:47:24;101232.35;;;-12.30;61.05
77482;BME280;66582;43.004;-75.010;2023-02-01T00:49:50;101240.50;;;-12.10;61.11
77482;BME280;66582;43.004;-75.010;2023-02-01T00:52:15;101237.20;;;-10.91;58.45
77482;BME280;66582;43.004;-75.010;2023-02-01T00:54:40;101227.92;;;-9.22;53.14
77482;BME280;66582;43.004;-75.010;2023-02-01T00:57:05;101226.36;;;-9.58;53.85
77482;BME280;66582;43.004;-75.010;2023-02-01T00:59:31;101215.32;;;-8.11;49.32
77482;BME280;66582;43.004;-75.010;2023-02-01T01:01:56;101221.47;;;-9.49;49.84
77482;BME280;66582;43.004;-75.010;2023-02-01T01:04:21;101230.56;;;-9.47;51.25
77482;BME280;66582;43.004;-75.010;2023-02-01T01:06:46;101232.42;;;-9.27;53.14
77482;BME280;66582;43.004;-75.010;2023-02-01T01:09:12;101226.16;;;-9.19;51.78
77482;BME280;66582;43.004;-75.010;2023-02-01T01:11:38;101228.35;;;-9.78;52.74
77482;BME280;66582;43.004;-75.010;2023-02-01T01:14:03;101222.53;;;-9.35;54.32
77482;BME280;66582;43.004;-75.010;2023-02-01T01:16:30;101216.63;;;-8.74;53.83
77482;BME280;66582;43.004;-75.010;2023-02-01T01:18:53;101204.90;;;-8.15;49.76
77482;BME280;66582;43.004;-75.010;2023-02-01T01:21:18;101205.86;;;-6.89;45.85
77482;BME280;66582;43.004;-75.010;2023-02-01T01:23:43;101210.57;;;-7.41;45.72
77482;BME280;66582;43.004;-75.010;2023-02-01T01:26:09;101216.93;;;-7.43;46.23
77482;BME280;66582;43.004;-75.010;2023-02-01T01:28:34;101212.07;;;-6.69;44.85
77482;BME280;66582;43.004;-75.010;2023-02-01T01:30:59;101209.43;;;-7.48;43.97
77482;BME280;66582;43.004;-75.010;2023-02-01T01:33:25;101197.77;;;-5.81;43.62
77482;BME280;66582;43.004;-75.010;2023-02-01T01:35:50;101203.03;;;-7.20;44.47
77482;BME280;66582;43.004;-75.010;2023-02-01T01:38:15;101209.11;;;-8.33;46.38
77482;BME280;66582;43.004;-75.010;2023-02-01T01:40:45;101196.85;;;-7.38;45.60
77482;BME280;66582;43.004;-75.010;2023-02-01T01:43:13;101198.73;;;-8.99;48.65
77482;BME280;66582;43.004;-75.010;2023-02-01T01:45:34;101204.57;;;-10.90;52.17
77482;BME280;66582;43.004;-75.010;2023-02-01T01:47:58;101192.87;;;-10.57;53.15
77482;BME280;66582;43.004;-75.010;2023-02-01T01:50:25;101193.88;;;-10.90;56.12
77482;BME280;66582;43.004;-75.010;2023-02-01T01:52:49;101199.42;;;-11.58;57.67
77482;BME280;66582;43.004;-75.010;2023-02-01T01:55:13;101194.44;;;-11.16;55.84
77482;BME280;66582;43.004;-75.010;2023-02-01T01:57:41;101180.44;;;-10.90;55.75
77482;BME280;66582;43.004;-75.010;2023-02-01T02:00:07;101181.71;;;-11.38;57.55
77482;BME280;66582;43.004;-75.010;2023-02-01T02:02:28;101180.75;;;-10.14;56.59
77482;BME280;66582;43.004;-75.010;2023-02-01T02:04:55;101194.35;;;-11.43;58.00
77482;BME280;66582;43.004;-75.010;2023-02-01T02:07:23;101185.10;;;-10.46;56.53
77482;BME280;66582;43.004;-75.010;2023-02-01T02:09:45;101194.05;;;-11.24;56.77
77482;BME280;66582;43.004;-75.010;2023-02-01T02:12:09;101207.80;;;-11.92;59.86
77482;BME280;66582;43.004;-75.010;2023-02-01T02:14:35;101206.48;;;-10.95;58.40
77482;BME280;66582;43.004;-75.010;2023-02-01T02:17:07;101212.04;;;-12.27;61.38
77482;BME280;66582;43.004;-75.010;2023-02-01T02:24:33;101200.58;;;-9.94;56.50
77482;BME280;66582;43.004;-75.010;2023-02-01T02:31:42;101186.11;;;-10.37;55.49
77482;BME280;66582;43.004;-75.010;2023-02-01T02:34:03;101179.39;;;-10.37;55.92
77482;BME280;66582;43.004;-75.010;2023-02-01T02:36:30;101173.09;;;-9.57;53.77
77482;BME280;66582;43.004;-75.010;2023-02-01T02:38:55;101174.94;;;-9.57;53.39
77482;BME280;66582;43.004;-75.010;2023-02-01T02:41:18;101166.96;;;-9.05;51.38
77482;BME280;66582;43.004;-75.010;2023-02-01T02:43:44;101174.67;;;-9.79;53.37
77482;BME280;66582;43.004;-75.010;2023-02-01T02:46:04;101168.86;;;-9.37;52.41
77482;BME280;66582;43.004;-75.010;2023-02-01T02:48:33;101169.58;;;-9.31;52.94
77482;BME280;66582;43.004;-75.010;2023-02-01T02:50:58;101176.85;;;-9.44;53.16
77482;BME280;66582;43.004;-75.010;2023-02-01T02:53:21;101175.37;;;-8.97;53.33
77482;BME280;66582;43.004;-75.010;2023-02-01T02:55:44;101178.56;;;-10.17;54.66
77482;BME280;66582;43.004;-75.010;2023-02-01T02:58:11;101175.47;;;-9.28;54.05
77482;BME280;66582;43.004;-75.010;2023-02-01T03:00:35;101161.39;;;-8.24;52.06
77482;BME280;66582;43.004;-75.010;2023-02-01T03:03:00;101158.81;;;-6.91;48.76
77482;BME280;66582;43.004;-75.010;2023-02-01T03:05:25;101167.06;;;-7.57;48.84
77482;BME280;66582;43.004;-75.010;2023-02-01T03:07:57;101172.51;;;-7.87;48.04
77482;BME280;66582;43.004;-75.010;2023-02-01T03:10:22;101171.69;;;-7.82;48.36
77482;BME280;66582;43.004;-75.010;2023-02-01T03:12:42;101172.77;;;-8.30;49.56
77482;BME280;66582;43.004;-75.010;2023-02-01T03:15:10;101180.76;;;-8.03;48.93
77482;BME280;66582;43.004;-75.010;2023-02-01T03:17:35;101191.85;;;-8.85;50.46
77482;BME280;66582;43.004;-75.010;2023-02-01T03:20:02;101200.13;;;-9.14;51.99
77482;BME280;66582;43.004;-75.010;2023-02-01T03:22:24;101191.23;;;-7.13;48.81
77482;BME280;66582;43.004;-75.010;2023-02-01T03:24:50;101188.24;;;-6.82;46.93
77482;BME280;66582;43.004;-75.010;2023-02-01T03:27:17;101183.36;;;-6.60;45.20
77482;BME280;66582;43.004;-75.010;2023-02-01T03:29:42;101191.04;;;-7.52;47.31
77482;BME280;66582;43.004;-75.010;2023-02-01T03:32:03;101191.05;;;-8.60;49.10
77482;BME280;66582;43.004;-75.010;2023-02-01T03:34:28;101199.86;;;-8.63;51.91
77482;BME280;66582;43.004;-75.010;2023-02-01T03:36:59;101194.73;;;-7.42;51.75
77482;BME280;66582;43.004;-75.010;2023-02-01T03:39:22;101181.03;;;-5.64;46.29
77482;BME280;66582;43.004;-75.010;2023-02-01T03:41:48;101165.59;;;-4.96;44.69
77482;BME280;66582;43.004;-75.010;2023-02-01T03:44:13;101179.76;;;-6.60;45.42
77482;BME280;66582;43.004;-75.010;2023-02-01T03:46:37;101175.66;;;-7.70;49.97
77482;BME280;66582;43.004;-75.010;2023-02-01T03:49:02;101182.00;;;-9.12;52.59
77482;BME280;66582;43.004;-75.010;2023-02-01T03:51:25;101169.90;;;-8.05;50.91
77482;BME280;66582;43.004;-75.010;2023-02-01T03:53:50;101168.08;;;-8.48;50.50
77482;BME280;66582;43.004;-75.010;2023-02-01T03:56:16;101165.65;;;-8.30;52.34
77482;BME280;66582;43.004;-75.010;2023-02-01T03:58:40;101162.42;;;-8.83;53.49
77482;BME280;66582;43.004;-75.010;2023-02-01T04:01:06;101158.97;;;-7.85;50.41
77482;BME280;66582;43.004;-75.010;2023-02-01T04:03:31;101154.90;;;-6.87;48.04
77482;BME280;66582;43.004;-75.010;2023-02-01T04:05:56;101155.44;;;-7.29;49.21
77482;BME280;66582;43.004;-75.010;2023-02-01T04:08:22;101160.29;;;-7.32;48.59
77482;BME280;66582;43.004;-75.010;2023-02-01T04:10:47;101149.87;;;-6.84;48.06
77482;BME280;66582;43.004;-75.010;2023-02-01T04:13:13;101145.21;;;-6.65;47.87
77482;BME280;66582;43.004;-75.010;2023-02-01T04:15:38;101136.14;;;-6.95;46.39
77482;BME280;66582;43.004;-75.010;2023-02-01T04:18:04;101147.00;;;-7.60;49.34
77482;BME280;66582;43.004;-75.010;2023-02-01T04:20:29;101149.76;;;-8.43;51.09
77482;BME280;66582;43.004;-75.010;2023-02-01T04:22:54;101151.33;;;-7.48;50.03
77482;BME280;66582;43.004;-75.010;2023-02-01T04:25:19;101149.75;;;-7.34;49.89
77482;BME280;66582;43.004;-75.010;2023-02-01T04:27:45;101134.35;;;-5.96;46.82
77482;BME280;66582;43.004;-75.010;2023-02-01T04:30:12;101141.35;;;-7.44;48.17
77482;BME280;66582;43.004;-75.010;2023-02-01T04:32:36;101138.32;;;-6.78;47.41
77482;BME280;66582;43.004;-75.010;2023-02-01T04:35:01;101130.69;;;-6.43;46.29
77482;BME280;66582;43.004;-75.010;2023-02-01T04:37:26;101130.99;;;-7.99;49.84
77482;BME280;66582;43.004;-75.010;2023-02-01T04:39:51;101128.98;;;-8.54;52.93
77482;BME280;66582;43.004;-75.010;2023-02-01T04:42:16;101122.67;;;-6.97;50.10
77482;BME280;66582;43.004;-75.010;2023-02-01T04:44:42;101114.02;;;-6.10;47.10
77482;BME280;66582;43.004;-75.010;2023-02-01T04:47:08;101114.13;;;-5.47;44.55
77482;BME280;66582;43.004;-75.010;2023-02-01T04:49:33;101107.07;;;-4.91;44.18
77482;BME280;66582;43.004;-75.010;2023-02-01T04:51:59;101109.70;;;-5.38;44.42
77482;BME280;66582;43.004;-75.010;2023-02-01T04:54:24;101099.80;;;-5.57;44.73
77482;BME280;66582;43.004;-75.010;2023-02-01T04:56:48;101101.18;;;-6.22;45.05
77482;BME280;66582;43.004;-75.010;2023-02-01T04:59:14;101085.04;;;-5.71;45.58
77482;BME280;66582;43.004;-75.010;2023-02-01T05:01:40;101088.91;;;-5.50;44.81
77482;BME280;66582;43.004;-75.010;2023-02-01T05:04:05;101087.02;;;-5.62;45.18
77482;BME280;66582;43.004;-75.010;2023-02-01T05:06:30;101085.34;;;-6.52;45.47
77482;BME280;66582;43.004;-75.010;2023-02-01T05:08:56;101076.22;;;-5.84;45.87
77482;BME280;66582;43.004;-75.010;2023-02-01T05:11:21;101064.44;;;-5.18;43.60
77482;BME280;66582;43.004;-75.010;2023-02-01T05:13:46;101066.95;;;-6.27;44.41
77482;BME280;66582;43.004;-75.010;2023-02-01T05:16:12;101076.23;;;-6.78;46.74
77482;BME280;66582;43.004;-75.010;2023-02-01T05:18:37;101065.64;;;-6.55;47.81
77482;BME280;66582;43.004;-75.010;2023-02-01T05:21:02;101062.87;;;-6.89;46.69
77482;BME280;66582;43.004;-75.010;2023-02-01T05:23:28;101057.24;;;-6.06;46.40
77482;BME280;66582;43.004;-75.010;2023-02-01T05:25:58;101054.69;;;-6.36;46.56
77482;BME280;66582;43.004;-75.010;2023-02-01T05:28:19;101046.05;;;-5.16;44.89
77482;BME280;66582;43.004;-75.010;2023-02-01T05:30:45;101047.78;;;-5.81;44.86
77482;BME280;66582;43.004;-75.010;2023-02-01T05:33:10;101040.99;;;-5.30;43.85
77482;BME280;66582;43.004;-75.010;2023-02-01T05:35:36;101030.27;;;-4.96;44.37
77482;BME280;66582;43.004;-75.010;2023-02-01T05:38:01;101029.59;;;-4.45;43.60
77482;BME280;66582;43.004;-75.010;2023-02-01T05:40:27;101026.66;;;-4.86;43.35
77482;BME280;66582;43.004;-75.010;2023-02-01T05:42:52;101029.67;;;-5.33;44.35
77482;BME280;66582;43.004;-75.010;2023-02-01T05:45:18;101035.30;;;-7.17;47.91
77482;BME280;66582;43.004;-75.010;2023-02-01T05:47:43;101042.97;;;-7.84;49.80
77482;BME280;66582;43.004;-75.010;2023-02-01T05:50:09;101041.66;;;-7.77;51.45
77482;BME280;66582;43.004;-75.010;2023-02-01T05:52:35;101036.40;;;-7.94;51.76
77482;BME280;66582;43.004;-75.010;2023-02-01T05:55:00;101026.25;;;-5.75;47.70
77482;BME280;66582;43.004;-75.010;2023-02-01T05:57:24;101024.01;;;-4.46;44.65
77482;BME280;66582;43.004;-75.010;2023-02-01T05:59:50;101023.66;;;-5.20;43.85
77482;BME280;66582;43.004;-75.010;2023-02-01T06:02:15;101022.45;;;-5.62;45.66
77482;BME280;66582;43.004;-75.010;2023-02-01T06:04:40;101014.73;;;-6.22;45.02
77482;BME280;66582;43.004;-75.010;2023-02-01T06:07:06;101012.71;;;-6.60;46.43
77482;BME280;66582;43.004;-75.010;2023-02-01T06:09:30;101021.34;;;-7.30;49.27
77482;BME280;66582;43.004;-75.010;2023-02-01T06:11:56;101029.30;;;-8.09;52.13
77482;BME280;66582;43.004;-75.010;2023-02-01T06:14:21;101025.48;;;-7.66;51.53
77482;BME280;66582;43.004;-75.010;2023-02-01T06:16:49;101009.24;;;-7.30;49.76
77482;BME280;66582;43.004;-75.010;2023-02-01T06:19:13;101010.66;;;-5.77;47.36
77482;BME280;66582;43.004;-75.010;2023-02-01T06:21:38;101020.06;;;-5.75;46.53
77482;BME280;66582;43.004;-75.010;2023-02-01T06:24:04;101041.85;;;-7.46;49.96
77482;BME280;66582;43.004;-75.010;2023-02-01T06:26:30;101044.21;;;-7.64;51.41
77482;BME280;66582;43.004;-75.010;2023-02-01T06:28:55;101030.52;;;-5.46;47.56
77482;BME280;66582;43.004;-75.010;2023-02-01T06:31:20;101037.58;;;-6.81;48.62
77482;BME280;66582;43.004;-75.010;2023-02-01T06:33:46;101041.70;;;-7.41;50.30
77482;BME280;66582;43.004;-75.010;2023-02-01T06:36:12;101044.19;;;-7.48;50.98
77482;BME280;66582;43.004;-75.010;2023-02-01T06:38:37;101051.39;;;-7.88;50.53
77482;BME280;66582;43.004;-75.010;2023-02-01T06:41:02;101054.79;;;-8.25;52.66
77482;BME280;66582;43.004;-75.010;2023-02-01T06:43:27;101068.43;;;-8.88;52.65
77482;BME280;66582;43.004;-75.010;2023-02-01T06:45:53;101063.53;;;-8.77;54.76
77482;BME280;66582;43.004;-75.010;2023-02-01T06:48:19;101061.10;;;-8.66;54.40
77482;BME280;66582;43.004;-75.010;2023-02-01T06:50:43;101063.26;;;-9.05;56.22
77482;BME280;66582;43.004;-75.010;2023-02-01T06:53:08;101056.47;;;-8.49;55.45
77482;BME280;66582;43.004;-75.010;2023-02-01T06:55:33;101059.44;;;-7.80;53.75
77482;BME280;66582;43.004;-75.010;2023-02-01T06:57:59;101049.60;;;-6.31;50.78
77482;BME280;66582;43.004;-75.010;2023-02-01T07:00:24;101047.67;;;-5.46;48.25
77482;BME280;66582;43.004;-75.010;2023-02-01T07:02:50;101050.37;;;-4.52;46.57
77482;BME280;66582;43.004;-75.010;2023-02-01T07:05:15;101048.36;;;-4.44;44.76
77482;BME280;66582;43.004;-75.010;2023-02-01T07:07:41;101044.74;;;-4.02;43.80
77482;BME280;66582;43.004;-75.010;2023-02-01T07:10:07;101043.51;;;-3.86;42.78
77482;BME280;66582;43.004;-75.010;2023-02-01T07:12:31;101046.20;;;-3.88;43.30
77482;BME280;66582;43.004;-75.010;2023-02-01T07:14:57;101066.53;;;-5.70;46.04
77482;BME280;66582;43.004;-75.010;2023-02-01T07:17:22;101075.71;;;-7.39;50.46
77482;BME280;66582;43.004;-75.010;2023-02-01T07:19:47;101094.42;;;-8.07;52.22
77482;BME280;66582;43.004;-75.010;2023-02-01T07:22:12;101095.84;;;-8.17;52.83
77482;BME280;66582;43.004;-75.010;2023-02-01T07:24:38;101089.47;;;-6.84;51.66
77482;BME280;66582;43.004;-75.010;2023-02-01T07:27:04;101097.33;;;-6.37;47.93
77482;BME280;66582;43.004;-75.010;2023-02-01T07:29:29;101106.32;;;-7.62;51.83
77482;BME280;66582;43.004;-75.010;2023-02-01T07:31:54;101103.63;;;-8.38;54.52
77482;BME280;66582;43.004;-75.010;2023-02-01T07:34:20;101108.55;;;-9.65;57.46
77482;BME280;66582;43.004;-75.010;2023-02-01T07:36:44;101113.20;;;-9.51;58.28
77482;BME280;66582;43.004;-75.010;2023-02-01T07:39:10;101111.19;;;-9.73;58.43
77482;BME280;66582;43.004;-75.010;2023-02-01T07:41:35;101112.88;;;-8.59;56.33
77482;BME280;66582;43.004;-75.010;2023-02-01T07:44:01;101105.14;;;-6.93;53.42
77482;BME280;66582;43.004;-75.010;2023-02-01T07:46:27;101111.04;;;-8.27;53.08
77482;BME280;66582;43.004;-75.010;2023-02-01T07:48:52;101112.80;;;-7.36;53.51
77482;BME280;66582;43.004;-75.010;2023-02-01T07:51:17;101103.46;;;-6.63;48.89
77482;BME280;66582;43.004;-75.010;2023-02-01T07:53:43;101107.99;;;-7.59;50.40
77482;BME280;66582;43.004;-75.010;2023-02-01T07:56:12;101111.69;;;-7.04;50.59
77482;BME280;66582;43.004;-75.010;2023-02-01T07:58:33;101111.91;;;-7.45;51.24
77482;BME280;66582;43.004;-75.010;2023-02-01T08:00:59;101119.40;;;-9.05;54.66
77482;BME280;66582;43.004;-75.010;2023-02-01T08:03:23;101105.53;;;-7.94;52.45
77482;BME280;66582;43.004;-75.010;2023-02-01T08:05:53;101105.14;;;-7.81;50.66
77482;BME280;66582;43.004;-75.010;2023-02-01T08:08:14;101107.87;;;-7.16;49.49
77482;BME280;66582;43.004;-75.010;2023-02-01T08:10:39;101114.18;;;-8.04;51.77
77482;BME280;66582;43.004;-75.010;2023-02-01T08:13:04;101094.66;;;-7.18;49.09
77482;BME280;66582;43.004;-75.010;2023-02-01T08:15:30;101103.39;;;-10.09;57.46
77482;BME280;66582;43.004;-75.010;2023-02-01T08:17:55;101093.69;;;-9.67;58.71
77482;BME280;66582;43.004;-75.010;2023-02-01T08:20:20;101081.11;;;-9.57;57.30
77482;BME280;66582;43.004;-75.010;2023-02-01T08:22:45;101066.45;;;-9.79;58.15
77482;BME280;66582;43.004;-75.010;2023-02-01T08:25:11;101060.80;;;-11.24;62.14
77482;BME280;66582;43.004;-75.010;2023-02-01T08:27:36;101068.33;;;-10.87;62.22
77482;BME280;66582;43.004;-75.010;2023-02-01T08:30:01;101068.66;;;-10.82;62.61
77482;BME280;66582;43.004;-75.010;2023-02-01T08:32:26;101068.72;;;-10.58;63.18
77482;BME280;66582;43.004;-75.010;2023-02-01T08:34:51;101076.05;;;-10.08;60.73
77482;BME280;66582;43.004;-75.010;2023-02-01T08:37:17;101082.95;;;-10.31;61.13
77482;BME280;66582;43.004;-75.010;2023-02-01T08:39:42;101093.27;;;-10.90;63.99
77482;BME280;66582;43.004;-75.010;2023-02-01T08:42:07;101088.27;;;-10.67;62.23
77482;BME280;66582;43.004;-75.010;2023-02-01T08:44:32;101075.94;;;-9.61;59.31
77482;BME280;66582;43.004;-75.010;2023-02-01T08:46:57;101066.33;;;-8.70;54.98
77482;BME280;66582;43.004;-75.010;2023-02-01T08:49:23;101056.37;;;-7.70;53.54
77482;BME280;66582;43.004;-75.010;2023-02-01T08:51:48;101070.37;;;-8.68;55.41
77482;BME280;66582;43.004;-75.010;2023-02-01T08:54:13;101064.02;;;-8.37;53.82
77482;BME280;66582;43.004;-75.010;2023-02-01T08:56:39;101068.48;;;-10.01;56.77
77482;BME280;66582;43.004;-75.010;2023-02-01T08:59:04;101065.20;;;-8.21;54.33
77482;BME280;66582;43.004;-75.010;2023-02-01T09:01:29;101064.64;;;-7.47;51.12
77482;BME280;66582;43.004;-75.010;2023-02-01T09:03:55;101066.13;;;-7.86;49.89
77482;BME280;66582;43.004;-75.010;2023-02-01T09:06:20;101074.44;;;-9.66;55.25
77482;BME280;66582;43.004;-75.010;2023-02-01T09:08:45;101071.73;;;-8.66;52.44
77482;BME280;66582;43.004;-75.010;2023-02-01T09:11:13;101068.01;;;-7.37;50.44
77482;BME280;66582;43.004;-75.010;2023-02-01T09:13:35;101074.27;;;-9.77;54.77
77482;BME280;66582;43.004;-75.010;2023-02-01T09:16:01;101069.21;;;-8.34;50.98
77482;BME280;66582;43.004;-75.010;2023-02-01T09:18:26;101076.58;;;-9.12;51.88
77482;BME280;66582;43.004;-75.010;2023-02-01T09:20:51;101079.01;;;-9.79;53.96
77482;BME280;66582;43.004;-75.010;2023-02-01T09:23:16;101086.64;;;-9.77;55.94
77482;BME280;66582;43.004;-75.010;2023-02-01T09:25:42;101090.84;;;-11.08;57.35
77482;BME280;66582;43.004;-75.010;2023-02-01T09:28:07;101102.49;;;-11.63;59.15
77482;BME280;66582;43.004;-75.010;2023-02-01T09:30:33;101104.08;;;-12.01;61.40
77482;BME280;66582;43.004;-75.010;2023-02-01T09:32:58;101110.13;;;-12.30;61.75
77482;BME280;66582;43.004;-75.010;2023-02-01T09:35:22;101115.21;;;-13.44;66.17
77482;BME280;66582;43.004;-75.010;2023-02-01T09:37:47;101114.75;;;-12.72;65.45
77482;BME280;66582;43.004;-75.010;2023-02-01T09:40:14;101116.18;;;-12.37;63.46
77482;BME280;66582;43.004;-75.010;2023-02-01T09:42:46;101123.23;;;-13.39;64.40
77482;BME280;66582;43.004;-75.010;2023-02-01T09:45:14;101125.79;;;-13.01;65.66
77482;BME280;66582;43.004;-75.010;2023-02-01T09:47:29;101126.75;;;-13.49;66.16
77482;BME280;66582;43.004;-75.010;2023-02-01T09:49:57;101122.78;;;-12.81;65.65
77482;BME280;66582;43.004;-75.010;2023-02-01T09:52:25;101120.18;;;-12.53;63.56
77482;BME280;66582;43.004;-75.010;2023-02-01T09:54:51;101121.26;;;-12.12;61.45
77482;BME280;66582;43.004;-75.010;2023-02-01T09:57:16;101124.99;;;-12.41;61.61
77482;BME280;66582;43.004;-75.010;2023-02-01T09:59:40;101129.83;;;-12.14;61.73
77482;BME280;66582;43.004;-75.010;2023-02-01T10:02:03;101128.90;;;-12.20;62.36
77482;BME280;66582;43.004;-75.010;2023-02-01T10:04:26;101127.88;;;-12.51;63.22
77482;BME280;66582;43.004;-75.010;2023-02-01T10:07:01;101124.25;;;-11.81;60.47
77482;BME280;66582;43.004;-75.010;2023-02-01T10:09:30;101126.43;;;-11.41;58.84
77482;BME280;66582;43.004;-75.010;2023-02-01T10:11:52;101133.36;;;-12.46;60.85
77482;BME280;66582;43.004;-75.010;2023-02-01T10:14:10;101132.09;;;-12.26;60.76
77482;BME280;66582;43.004;-75.010;2023-02-01T10:16:39;101125.61;;;-11.98;58.70
77482;BME280;66582;43.004;-75.010;2023-02-01T10:19:13;101125.92;;;-13.11;60.50
77482;BME280;66582;43.004;-75.010;2023-02-01T10:21:31;101125.67;;;-13.33;62.33
77482;BME280;66582;43.004;-75.010;2023-02-01T10:24:02;101136.45;;;-14.05;64.93
77482;BME280;66582;43.004;-75.010;2023-02-01T10:26:18;101137.24;;;-14.57;66.03
77482;BME280;66582;43.004;-75.010;2023-02-01T10:28:39;101134.24;;;-14.04;65.12
77482;BME280;66582;43.004;-75.010;2023-02-01T10:31:05;101132.54;;;-13.81;64.34
77482;BME280;66582;43.004;-75.010;2023-02-01T10:33:34;101130.93;;;-13.58;65.30
77482;BME280;66582;43.004;-75.010;2023-02-01T10:35:58;101124.97;;;-14.57;66.96
77482;BME280;66582;43.004;-75.010;2023-02-01T10:38:24;101123.95;;;-13.66;64.84
77482;BME280;66582;43.004;-75.010;2023-02-01T10:40:45;101113.06;;;-12.15;61.10
77482;BME280;66582;43.004;-75.010;2023-02-01T10:43:10;101118.17;;;-12.95;60.35
77482;BME280;66582;43.004;-75.010;2023-02-01T10:45:35;101114.52;;;-12.13;58.89
77482;BME280;66582;43.004;-75.010;2023-02-01T10:48:02;101113.19;;;-12.56;59.33
77482;BME280;66582;43.004;-75.010;2023-02-01T10:50:35;101114.79;;;-12.54;58.78
77482;BME280;66582;43.004;-75.010;2023-02-01T10:52:54;101117.63;;;-12.20;58.49
77482;BME280;66582;43.004;-75.010;2023-02-01T10:55:27;101117.47;;;-11.46;57.06
77482;BME280;66582;43.004;-75.010;2023-02-01T10:57:41;101124.07;;;-12.53;58.14
77482;BME280;66582;43.004;-75.010;2023-02-01T11:02:34;101141.42;;;-13.30;60.89
77482;BME280;66582;43.004;-75.010;2023-02-01T11:05:01;101134.76;;;-11.99;57.01
77482;BME280;66582;43.004;-75.010;2023-02-01T11:07:25;101140.71;;;-12.44;58.56
77482;BME280;66582;43.004;-75.010;2023-02-01T11:09:51;101144.84;;;-12.93;59.89
77482;BME280;66582;43.004;-75.010;2023-02-01T11:12:28;101144.13;;;-11.92;56.74
77482;BME280;66582;43.004;-75.010;2023-02-01T11:14:40;101148.34;;;-13.13;58.58
77482;BME280;66582;43.004;-75.010;2023-02-01T11:17:17;101148.77;;;-12.96;57.62
77482;BME280;66582;43.004;-75.010;2023-02-01T11:19:29;101144.60;;;-12.25;55.97
77482;BME280;66582;43.004;-75.010;2023-02-01T11:21:57;101152.59;;;-13.28;58.37
77482;BME280;66582;43.004;-75.010;2023-02-01T11:24:23;101151.93;;;-12.26;57.34
77482;BME280;66582;43.004;-75.010;2023-02-01T11:26:45;101147.17;;;-12.55;57.74
77482;BME280;66582;43.004;-75.010;2023-02-01T11:29:14;101139.28;;;-11.39;54.22
77482;BME280;66582;43.004;-75.010;2023-02-01T11:31:37;101131.44;;;-10.59;52.93
77482;BME280;66582;43.004;-75.010;2023-02-01T11:34:07;101139.65;;;-12.50;53.21
77482;BME280;66582;43.004;-75.010;2023-02-01T11:36:29;101136.64;;;-11.67;54.33
77482;BME280;66582;43.004;-75.010;2023-02-01T11:38:54;101143.77;;;-11.02;54.92
77482;BME280;66582;43.004;-75.010;2023-02-01T11:41:22;101148.66;;;-12.53;55.46
77482;BME280;66582;43.004;-75.010;2023-02-01T11:43:54;101140.63;;;-11.92;55.58
77482;BME280;66582;43.004;-75.010;2023-02-01T11:46:17;101144.74;;;-12.25;55.01
77482;BME280;66582;43.004;-75.010;2023-02-01T11:48:34;101144.42;;;-12.60;57.90
77482;BME280;66582;43.004;-75.010;2023-02-01T11:51:13;101140.63;;;-12.32;57.38
77482;BME280;66582;43.004;-75.010;2023-02-01T11:53:36;101141.37;;;-12.22;55.86
77482;BME280;66582;43.004;-75.010;2023-02-01T11:55:58;101135.27;;;-11.47;53.55
77482;BME280;66582;43.004;-75.010;2023-02-01T11:58:26;101143.23;;;-12.47;55.90
77482;BME280;66582;43.004;-75.010;2023-02-01T12:00:51;101152.18;;;-12.96;57.26
77482;BME280;66582;43.004;-75.010;2023-02-01T12:03:18;101151.07;;;-12.19;57.62
77482;BME280;66582;43.004;-75.010;2023-02-01T12:05:38;101163.12;;;-13.95;60.09
77482;BME280;66582;43.004;-75.010;2023-02-01T12:08:06;101158.73;;;-12.80;59.51
77482;BME280;66582;43.004;-75.010;2023-02-01T12:10:30;101149.08;;;-12.13;57.15
77482;BME280;66582;43.004;-75.010;2023-02-01T12:12:53;101148.18;;;-12.46;57.93
77482;BME280;66582;43.004;-75.010;2023-02-01T12:15:26;101142.41;;;-12.12;57.17
77482;BME280;66582;43.004;-75.010;2023-02-01T12:17:48;101142.12;;;-11.67;56.78
77482;BME280;66582;43.004;-75.010;2023-02-01T12:20:16;101140.61;;;-11.84;56.02
77482;BME280;66582;43.004;-75.010;2023-02-01T12:22:38;101136.26;;;-11.24;54.60
77482;BME280;66582;43.004;-75.010;2023-02-01T12:25:06;101142.45;;;-11.48;53.29
77482;BME280;66582;43.004;-75.010;2023-02-01T12:27:40;101141.63;;;-10.75;51.90